Accueil
METAR-TAF:

METAR-TAF

Aéroports :

Aéroport de Kuujjuaq

Kuujjuaq, Québec, Canada

latitude: 58-06N, longitude: 068-25W, altitude: 37 m

Observation

Le bulletin a été fait il y a 22 minutes, à 03:00 UTC
Vent 7 kt de ouest, variant entre sud-ouest et ouest/nord-ouest
Température 12°C
Humidité 58%
Pression 1014 hPa
Visibilité: 24.1 km
Ciel couvert à une hauteur de 6400 ft

METAR: CYVP 190300Z 27007KT 220V300 15SM OVC064 12/04 A2993 RMK SC8 SLP138

Heure: 23:22 (03:22 UTC)

Prévision

Le bulletin a été fait il y a 3 heures et 44 minutes, à 23:38 UTC
Prévision valable du 19 à 00 UTC au 19 à 12 UTC
Vent 7 kt de ouest
Visibilité: 10 km
Nuages fragmentés à une hauteur de 5000 ft
Nuages fragmentés à une hauteur de 11000 ft
A partir de 19 à 0800 UTC
Vent 6 kt de sud-ouest
Visibilité: 10 km
Nuages fragmentés à une hauteur de 12000 ft

TAF: CYVP 182338Z 1900/1912 27007KT P6SM BKN050 BKN110 FM190800 22006KT P6SM BKN120 RMK NXT FCST BY 190600Z

Observations et prévisions météorologiques de plus de 4000 aéroports (messages METAR et TAF).

Les stations disponibles sont représentées par des disques jaunes et rouges sur la carte.

Passer la souris dessus pour voir le nom de la station.

Cliquer dessus pour voir les observations et prévisions météorologiques.

Pour changer de carte: cliquez sur les boutons verts avec une croix noire pour zoomer, sur le bouton vert avec un tiret pour effectuer un zoom arrière, ou sur les flèches vertes pour les cartes adjacentes.


METAR-TAF: